UTA801 UUWW-UTDD
Flight info
| Callsign | UTA801 |
|---|---|
| Flight time | 3h 54m |
| Altitude | 37000 |
| Route | TOGMO M56 DENUD M161 ODIVA L162 DAKLI Z407 BUTRA A362 AKVEZ |
| Aircraft | B762/H-SDFGIRWY/S |
Departure
| Time | 2026-04-27 07:56 |
|---|---|
| Airport | Vnukovo International Airport (UUWW) |
Arrival
| Time | 2026-04-27 11:51 |
|---|---|
| Airport | Dushanbe International Airport (UTDD) |
| Time | Latitude | Longitude | Altitude | Speed | Heading |
|---|---|---|---|---|---|
| 2026-04-27 07:46 | 55.60220 | 37.27994 | 702 ft | 0 kts | 69° |
| 2026-04-27 07:47 | 55.60216 | 37.27976 | 702 ft | 2 kts | 69° |
| 2026-04-27 07:47 | 55.60211 | 37.27952 | 702 ft | 2 kts | 69° |
| 2026-04-27 07:48 | 55.60206 | 37.27928 | 702 ft | 2 kts | 69° |
| 2026-04-27 07:48 | 55.60202 | 37.27907 | 702 ft | 2 kts | 76° |
| 2026-04-27 07:48 | 55.60201 | 37.27882 | 702 ft | 2 kts | 104° |
| 2026-04-27 07:48 | 55.60207 | 37.27861 | 702 ft | 2 kts | 126° |
| 2026-04-27 07:49 | 55.60216 | 37.27845 | 702 ft | 2 kts | 147° |
| 2026-04-27 07:49 | 55.60228 | 37.27837 | 702 ft | 1 kts | 169° |
| 2026-04-27 07:49 | 55.60234 | 37.27837 | 702 ft | 0 kts | 177° |
| 2026-04-27 07:51 | 55.60233 | 37.27837 | 702 ft | 0 kts | 178° |
| 2026-04-27 07:51 | 55.60224 | 37.27838 | 702 ft | 3 kts | 176° |
| 2026-04-27 07:51 | 55.60177 | 37.27859 | 702 ft | 12 kts | 156° |
| 2026-04-27 07:52 | 55.60104 | 37.27959 | 702 ft | 13 kts | 124° |
| 2026-04-27 07:52 | 55.60073 | 37.28111 | 702 ft | 12 kts | 92° |
| 2026-04-27 07:52 | 55.60080 | 37.28256 | 702 ft | 11 kts | 84° |
| 2026-04-27 07:52 | 55.60090 | 37.28384 | 702 ft | 9 kts | 76° |
| 2026-04-27 07:53 | 55.60124 | 37.28485 | 702 ft | 10 kts | 46° |
| 2026-04-27 07:53 | 55.60187 | 37.28597 | 702 ft | 13 kts | 46° |
| 2026-04-27 07:53 | 55.60198 | 37.28731 | 702 ft | 10 kts | 131° |
| 2026-04-27 07:53 | 55.60144 | 37.28823 | 702 ft | 10 kts | 139° |
| 2026-04-27 07:54 | 55.60078 | 37.28880 | 702 ft | 7 kts | 166° |
| 2026-04-27 07:54 | 55.60023 | 37.28904 | 702 ft | 6 kts | 167° |
| 2026-04-27 07:54 | 55.59960 | 37.28930 | 702 ft | 12 kts | 168° |
| 2026-04-27 07:54 | 55.59866 | 37.28969 | 702 ft | 14 kts | 166° |
| 2026-04-27 07:55 | 55.59801 | 37.28984 | 702 ft | 4 kts | 205° |
| 2026-04-27 07:55 | 55.59787 | 37.28947 | 702 ft | 3 kts | 246° |
| 2026-04-27 07:55 | 55.59775 | 37.28899 | 702 ft | 8 kts | 248° |
| 2026-04-27 07:55 | 55.59697 | 37.28545 | 702 ft | 53 kts | 248° |
| 2026-04-27 07:56 | 55.59503 | 37.27689 | 702 ft | 98 kts | 249° |
| 2026-04-27 07:56 | 55.59193 | 37.26303 | 730 ft | 138 kts | 251° |
| 2026-04-27 07:56 | 55.58801 | 37.24737 | 1326 ft | 140 kts | 245° |
| 2026-04-27 07:56 | 55.58283 | 37.23385 | 2058 ft | 134 kts | 244° |
| 2026-04-27 07:57 | 55.57735 | 37.21979 | 2416 ft | 146 kts | 244° |
| 2026-04-27 07:57 | 55.57127 | 37.20422 | 2735 ft | 162 kts | 244° |
| 2026-04-27 07:57 | 55.56449 | 37.18698 | 3106 ft | 177 kts | 244° |
| 2026-04-27 07:57 | 55.55711 | 37.16826 | 3437 ft | 196 kts | 244° |
| 2026-04-27 07:58 | 55.54767 | 37.14933 | 3949 ft | 222 kts | 223° |
| 2026-04-27 07:58 | 55.53258 | 37.13915 | 4630 ft | 242 kts | 203° |
| 2026-04-27 07:58 | 55.51620 | 37.13188 | 5323 ft | 247 kts | 204° |
| 2026-04-27 07:58 | 55.49947 | 37.12454 | 5972 ft | 258 kts | 197° |
| 2026-04-27 07:59 | 55.48050 | 37.12649 | 6350 ft | 293 kts | 166° |
| 2026-04-27 07:59 | 55.44558 | 37.16902 | 7677 ft | 315 kts | 142° |
| 2026-04-27 07:59 | 55.42836 | 37.19287 | 8502 ft | 316 kts | 143° |
| 2026-04-27 08:00 | 55.41118 | 37.21635 | 9297 ft | 318 kts | 143° |
| 2026-04-27 08:00 | 55.39372 | 37.23994 | 10107 ft | 319 kts | 143° |
| 2026-04-27 08:00 | 55.37607 | 37.26369 | 10854 ft | 322 kts | 142° |
| 2026-04-27 08:00 | 55.35958 | 37.29112 | 11312 ft | 337 kts | 133° |
| 2026-04-27 08:01 | 55.34303 | 37.32186 | 11731 ft | 354 kts | 134° |
| 2026-04-27 08:01 | 55.32599 | 37.35327 | 12243 ft | 366 kts | 134° |
| 2026-04-27 08:01 | 55.30855 | 37.38544 | 13136 ft | 365 kts | 134° |
| 2026-04-27 08:01 | 55.29094 | 37.41796 | 13943 ft | 367 kts | 135° |
| 2026-04-27 08:02 | 55.27335 | 37.45028 | 14685 ft | 370 kts | 135° |
| 2026-04-27 08:02 | 55.25558 | 37.48299 | 15338 ft | 374 kts | 135° |
| 2026-04-27 08:02 | 55.23761 | 37.51591 | 16046 ft | 375 kts | 134° |
| 2026-04-27 08:02 | 55.21966 | 37.54891 | 16705 ft | 380 kts | 134° |
| 2026-04-27 08:03 | 55.20139 | 37.58231 | 17349 ft | 383 kts | 134° |
| 2026-04-27 08:03 | 55.18306 | 37.61586 | 18013 ft | 386 kts | 133° |
| 2026-04-27 08:03 | 55.16420 | 37.65023 | 18648 ft | 389 kts | 134° |
| 2026-04-27 08:03 | 55.14541 | 37.68456 | 19243 ft | 393 kts | 134° |
| 2026-04-27 08:04 | 55.12653 | 37.71896 | 19912 ft | 394 kts | 134° |
| 2026-04-27 08:04 | 55.10737 | 37.75375 | 20504 ft | 399 kts | 134° |
| 2026-04-27 08:04 | 55.08833 | 37.78831 | 21217 ft | 399 kts | 134° |
| 2026-04-27 08:04 | 55.06892 | 37.82349 | 21782 ft | 403 kts | 134° |
| 2026-04-27 08:05 | 55.04949 | 37.85868 | 22390 ft | 406 kts | 134° |
| 2026-04-27 08:05 | 55.02990 | 37.89407 | 22953 ft | 409 kts | 134° |
| 2026-04-27 08:05 | 55.01022 | 37.92961 | 23500 ft | 413 kts | 134° |
| 2026-04-27 08:05 | 54.99320 | 37.96027 | 23976 ft | 415 kts | 134° |
| 2026-04-27 08:06 | 54.97415 | 37.99455 | 24477 ft | 419 kts | 134° |
| 2026-04-27 08:06 | 54.95389 | 38.03095 | 24920 ft | 423 kts | 134° |
| 2026-04-27 08:06 | 54.93318 | 38.06813 | 25340 ft | 426 kts | 134° |
| 2026-04-27 08:06 | 54.91258 | 38.10503 | 25730 ft | 428 kts | 134° |
| 2026-04-27 08:07 | 54.89187 | 38.14205 | 26099 ft | 431 kts | 134° |
| 2026-04-27 08:07 | 54.87091 | 38.17949 | 26476 ft | 433 kts | 134° |
| 2026-04-27 08:07 | 54.84974 | 38.21722 | 26816 ft | 436 kts | 134° |
| 2026-04-27 08:07 | 54.82843 | 38.25515 | 27170 ft | 439 kts | 134° |
| 2026-04-27 08:08 | 54.80719 | 38.29291 | 27504 ft | 441 kts | 134° |
| 2026-04-27 08:08 | 54.78572 | 38.33099 | 27848 ft | 443 kts | 134° |
| 2026-04-27 08:08 | 54.76407 | 38.36935 | 28176 ft | 446 kts | 134° |
| 2026-04-27 08:08 | 54.74237 | 38.40773 | 28515 ft | 447 kts | 135° |
| 2026-04-27 08:09 | 54.72070 | 38.44598 | 28833 ft | 450 kts | 135° |
| 2026-04-27 08:09 | 54.69875 | 38.48468 | 29156 ft | 452 kts | 135° |
| 2026-04-27 08:09 | 54.67660 | 38.52364 | 29495 ft | 454 kts | 135° |
| 2026-04-27 08:09 | 54.65465 | 38.56221 | 29816 ft | 456 kts | 135° |
| 2026-04-27 08:10 | 54.63236 | 38.60129 | 30111 ft | 459 kts | 135° |
| 2026-04-27 08:10 | 54.60997 | 38.64050 | 30391 ft | 462 kts | 135° |
| 2026-04-27 08:10 | 54.58737 | 38.68000 | 30738 ft | 462 kts | 136° |
| 2026-04-27 08:10 | 54.56467 | 38.71961 | 31122 ft | 461 kts | 136° |
| 2026-04-27 08:11 | 54.54221 | 38.75876 | 31467 ft | 461 kts | 136° |
| 2026-04-27 08:11 | 54.51964 | 38.79802 | 31817 ft | 460 kts | 136° |
| 2026-04-27 08:11 | 54.49709 | 38.83718 | 32144 ft | 460 kts | 136° |
| 2026-04-27 08:11 | 54.47490 | 38.87564 | 32462 ft | 459 kts | 136° |
| 2026-04-27 08:12 | 54.45242 | 38.91455 | 32804 ft | 458 kts | 136° |
| 2026-04-27 08:12 | 54.42985 | 38.95354 | 33160 ft | 459 kts | 136° |
| 2026-04-27 08:12 | 54.40763 | 38.99299 | 33532 ft | 459 kts | 132° |
| 2026-04-27 08:12 | 54.38869 | 39.03698 | 33883 ft | 460 kts | 123° |
| 2026-04-27 08:13 | 54.37425 | 39.08532 | 34201 ft | 462 kts | 114° |
| 2026-04-27 08:13 | 54.36197 | 39.13638 | 34513 ft | 461 kts | 114° |
| 2026-04-27 08:13 | 54.34980 | 39.18666 | 34785 ft | 461 kts | 114° |
| 2026-04-27 08:13 | 54.33738 | 39.23806 | 35061 ft | 461 kts | 114° |
| 2026-04-27 08:14 | 54.32522 | 39.28824 | 35333 ft | 461 kts | 114° |
| 2026-04-27 08:14 | 54.31292 | 39.33892 | 35566 ft | 461 kts | 114° |
| 2026-04-27 08:14 | 54.30053 | 39.38991 | 35798 ft | 461 kts | 114° |
| 2026-04-27 08:14 | 54.28822 | 39.44046 | 36029 ft | 461 kts | 114° |
| 2026-04-27 08:15 | 54.27587 | 39.49107 | 36243 ft | 461 kts | 114° |
| 2026-04-27 08:15 | 54.26355 | 39.54145 | 36377 ft | 458 kts | 114° |
| 2026-04-27 08:15 | 54.23917 | 39.64079 | 36392 ft | 458 kts | 114° |
| 2026-04-27 08:16 | 54.21440 | 39.74128 | 36405 ft | 461 kts | 115° |
| 2026-04-27 08:16 | 54.18939 | 39.84229 | 36417 ft | 459 kts | 115° |
| 2026-04-27 08:17 | 54.16470 | 39.94157 | 36431 ft | 460 kts | 115° |
| 2026-04-27 08:17 | 54.13957 | 40.04213 | 36422 ft | 461 kts | 115° |
| 2026-04-27 08:18 | 54.11553 | 40.14332 | 36427 ft | 460 kts | 109° |
| 2026-04-27 08:18 | 54.09729 | 40.24799 | 36418 ft | 463 kts | 108° |
| 2026-04-27 08:19 | 54.07901 | 40.35290 | 36414 ft | 462 kts | 108° |
| 2026-04-27 08:19 | 54.06069 | 40.45757 | 36429 ft | 462 kts | 108° |
| 2026-04-27 08:20 | 54.04234 | 40.56194 | 36433 ft | 461 kts | 108° |
| 2026-04-27 08:20 | 54.02387 | 40.66646 | 36432 ft | 461 kts | 109° |
| 2026-04-27 08:21 | 54.00542 | 40.77028 | 36440 ft | 461 kts | 109° |
| 2026-04-27 08:21 | 53.98680 | 40.87439 | 36434 ft | 462 kts | 109° |
| 2026-04-27 08:22 | 53.96818 | 40.97799 | 36448 ft | 461 kts | 109° |
| 2026-04-27 08:22 | 53.95010 | 41.08189 | 36457 ft | 461 kts | 107° |
| 2026-04-27 08:23 | 53.93296 | 41.18698 | 36451 ft | 462 kts | 108° |
| 2026-04-27 08:23 | 53.91574 | 41.29166 | 36434 ft | 461 kts | 108° |
| 2026-04-27 08:24 | 53.89837 | 41.39650 | 36434 ft | 461 kts | 108° |
| 2026-04-27 08:24 | 53.88102 | 41.50052 | 36446 ft | 462 kts | 108° |
| 2026-04-27 08:25 | 53.86337 | 41.60581 | 36447 ft | 461 kts | 108° |
| 2026-04-27 08:25 | 53.84575 | 41.71017 | 36444 ft | 461 kts | 109° |
| 2026-04-27 08:26 | 53.82808 | 41.81399 | 36473 ft | 460 kts | 109° |
| 2026-04-27 08:26 | 53.81021 | 41.91818 | 36462 ft | 461 kts | 109° |
| 2026-04-27 08:27 | 53.79236 | 42.02161 | 36470 ft | 462 kts | 109° |
| 2026-04-27 08:27 | 53.77426 | 42.12497 | 36486 ft | 462 kts | 109° |
| 2026-04-27 08:28 | 53.75612 | 42.22944 | 36473 ft | 462 kts | 109° |
| 2026-04-27 08:28 | 53.73809 | 42.33243 | 36492 ft | 461 kts | 109° |
| 2026-04-27 08:29 | 53.71975 | 42.43639 | 36497 ft | 462 kts | 109° |
| 2026-04-27 08:29 | 53.70136 | 42.53991 | 36492 ft | 462 kts | 110° |
| 2026-04-27 08:30 | 53.68292 | 42.64315 | 36501 ft | 461 kts | 110° |
| 2026-04-27 08:30 | 53.66575 | 42.74784 | 36481 ft | 461 kts | 108° |
| 2026-04-27 08:31 | 53.64943 | 42.85201 | 36482 ft | 462 kts | 109° |
| 2026-04-27 08:31 | 53.63290 | 42.95677 | 36489 ft | 463 kts | 109° |
| 2026-04-27 08:32 | 53.61635 | 43.06095 | 36492 ft | 463 kts | 109° |
| 2026-04-27 08:32 | 53.59959 | 43.16575 | 36510 ft | 464 kts | 109° |
| 2026-04-27 08:33 | 53.58278 | 43.27022 | 36509 ft | 462 kts | 109° |
| 2026-04-27 08:33 | 53.56601 | 43.37382 | 36514 ft | 461 kts | 109° |
| 2026-04-27 08:34 | 53.54909 | 43.47764 | 36532 ft | 463 kts | 109° |
| 2026-04-27 08:34 | 53.53199 | 43.58197 | 36514 ft | 461 kts | 109° |
| 2026-04-27 08:35 | 53.51482 | 43.68605 | 36528 ft | 462 kts | 110° |
| 2026-04-27 08:35 | 53.49762 | 43.78976 | 36522 ft | 462 kts | 110° |
| 2026-04-27 08:36 | 53.48025 | 43.89376 | 36517 ft | 463 kts | 110° |
| 2026-04-27 08:36 | 53.46285 | 43.99744 | 36530 ft | 462 kts | 110° |
| 2026-04-27 08:37 | 53.44537 | 44.10089 | 36522 ft | 462 kts | 110° |
| 2026-04-27 08:37 | 53.42795 | 44.20346 | 36533 ft | 461 kts | 110° |
| 2026-04-27 08:38 | 53.41024 | 44.30705 | 36533 ft | 462 kts | 111° |
| 2026-04-27 08:38 | 53.39249 | 44.41024 | 36547 ft | 462 kts | 111° |
| 2026-04-27 08:39 | 53.37470 | 44.51322 | 36536 ft | 460 kts | 111° |
| 2026-04-27 08:39 | 53.35686 | 44.61565 | 36549 ft | 459 kts | 111° |
| 2026-04-27 08:40 | 53.33876 | 44.71912 | 36553 ft | 460 kts | 112° |
| 2026-04-27 08:40 | 53.32076 | 44.82144 | 36553 ft | 458 kts | 112° |
| 2026-04-27 08:41 | 53.30270 | 44.92335 | 36547 ft | 460 kts | 112° |
| 2026-04-27 08:41 | 53.28461 | 45.02508 | 36558 ft | 458 kts | 112° |
| 2026-04-27 08:42 | 53.26465 | 45.12503 | 36590 ft | 457 kts | 116° |
| 2026-04-27 08:42 | 53.24285 | 45.22515 | 36581 ft | 457 kts | 115° |
| 2026-04-27 08:43 | 53.22124 | 45.32430 | 36591 ft | 455 kts | 116° |
| 2026-04-27 08:43 | 53.19976 | 45.42247 | 36582 ft | 452 kts | 116° |
| 2026-04-27 08:44 | 53.17812 | 45.52088 | 36576 ft | 455 kts | 116° |
| 2026-04-27 08:44 | 53.15620 | 45.62012 | 36572 ft | 456 kts | 116° |
| 2026-04-27 08:45 | 53.13437 | 45.71850 | 36579 ft | 455 kts | 116° |
| 2026-04-27 08:45 | 53.11247 | 45.81676 | 36594 ft | 454 kts | 117° |
| 2026-04-27 08:46 | 53.09072 | 45.91481 | 36601 ft | 451 kts | 117° |
| 2026-04-27 08:46 | 53.06896 | 46.01273 | 36613 ft | 455 kts | 117° |
| 2026-04-27 08:47 | 53.04703 | 46.11095 | 36606 ft | 452 kts | 117° |
| 2026-04-27 08:47 | 53.02517 | 46.20843 | 36595 ft | 449 kts | 117° |
| 2026-04-27 08:48 | 53.00319 | 46.30595 | 36611 ft | 452 kts | 117° |
| 2026-04-27 08:48 | 52.98113 | 46.40335 | 36609 ft | 451 kts | 117° |
| 2026-04-27 08:49 | 52.95916 | 46.49995 | 36599 ft | 450 kts | 117° |
| 2026-04-27 08:49 | 52.93678 | 46.59784 | 36596 ft | 453 kts | 117° |
| 2026-04-27 08:50 | 52.91463 | 46.69443 | 36591 ft | 450 kts | 118° |
| 2026-04-27 08:50 | 52.89238 | 46.79096 | 36614 ft | 448 kts | 118° |
| 2026-04-27 08:51 | 52.86984 | 46.88820 | 36620 ft | 451 kts | 118° |
| 2026-04-27 08:51 | 52.84747 | 46.98443 | 36599 ft | 447 kts | 118° |
| 2026-04-27 08:52 | 52.82493 | 47.08080 | 36634 ft | 451 kts | 118° |
| 2026-04-27 08:52 | 52.80348 | 47.17871 | 36623 ft | 452 kts | 117° |
| 2026-04-27 08:53 | 52.78283 | 47.27580 | 36637 ft | 449 kts | 117° |
| 2026-04-27 08:53 | 52.76191 | 47.37345 | 36668 ft | 453 kts | 117° |
| 2026-04-27 08:54 | 52.74098 | 47.47078 | 36642 ft | 448 kts | 117° |
| 2026-04-27 08:54 | 52.72005 | 47.56754 | 36656 ft | 450 kts | 117° |
| 2026-04-27 08:55 | 52.69917 | 47.66419 | 36662 ft | 448 kts | 118° |
| 2026-04-27 08:55 | 52.67815 | 47.76091 | 36653 ft | 448 kts | 118° |
| 2026-04-27 08:56 | 52.65703 | 47.85780 | 36650 ft | 447 kts | 118° |
| 2026-04-27 08:56 | 52.63603 | 47.95358 | 36668 ft | 449 kts | 118° |
| 2026-04-27 08:57 | 52.60441 | 48.09711 | 36664 ft | 444 kts | 118° |
| 2026-04-27 08:58 | 52.58307 | 48.19303 | 36688 ft | 447 kts | 119° |
| 2026-04-27 08:58 | 52.56168 | 48.28880 | 36703 ft | 449 kts | 119° |
| 2026-04-27 08:59 | 52.54029 | 48.38420 | 36728 ft | 447 kts | 119° |
| 2026-04-27 08:59 | 52.51868 | 48.48009 | 36706 ft | 447 kts | 119° |
| 2026-04-27 09:00 | 52.49714 | 48.57522 | 36701 ft | 448 kts | 119° |
| 2026-04-27 09:00 | 52.47536 | 48.67094 | 36720 ft | 448 kts | 120° |
| 2026-04-27 09:01 | 52.45349 | 48.76667 | 36712 ft | 448 kts | 120° |
| 2026-04-27 09:01 | 52.43147 | 48.86259 | 36719 ft | 449 kts | 120° |
| 2026-04-27 09:02 | 52.40958 | 48.95766 | 36693 ft | 443 kts | 120° |
| 2026-04-27 09:02 | 52.38761 | 49.05232 | 36733 ft | 451 kts | 120° |
| 2026-04-27 09:03 | 52.36525 | 49.14847 | 36724 ft | 453 kts | 120° |
| 2026-04-27 09:03 | 52.34285 | 49.24411 | 36733 ft | 449 kts | 120° |
| 2026-04-27 09:04 | 52.32032 | 49.33963 | 36736 ft | 451 kts | 120° |
| 2026-04-27 09:04 | 52.29773 | 49.43514 | 36715 ft | 451 kts | 120° |
| 2026-04-27 09:05 | 52.27527 | 49.52982 | 36715 ft | 450 kts | 120° |
| 2026-04-27 09:05 | 52.25248 | 49.62541 | 36729 ft | 452 kts | 120° |
| 2026-04-27 09:06 | 52.22979 | 49.72033 | 36723 ft | 448 kts | 121° |
| 2026-04-27 09:06 | 52.20701 | 49.81503 | 36724 ft | 452 kts | 121° |
| 2026-04-27 09:07 | 52.18393 | 49.91061 | 36705 ft | 450 kts | 121° |
| 2026-04-27 09:07 | 52.16097 | 50.00531 | 36709 ft | 452 kts | 121° |
| 2026-04-27 09:08 | 52.13788 | 50.10018 | 36719 ft | 451 kts | 121° |
| 2026-04-27 09:08 | 52.11464 | 50.19516 | 36727 ft | 451 kts | 121° |
| 2026-04-27 09:09 | 52.09154 | 50.28921 | 36735 ft | 451 kts | 121° |
| 2026-04-27 09:09 | 52.06812 | 50.38411 | 36725 ft | 454 kts | 121° |
| 2026-04-27 09:10 | 52.04459 | 50.47912 | 36740 ft | 452 kts | 120° |
| 2026-04-27 09:10 | 52.02106 | 50.57368 | 36741 ft | 454 kts | 121° |
| 2026-04-27 09:11 | 51.99746 | 50.66814 | 36743 ft | 452 kts | 121° |
| 2026-04-27 09:11 | 51.97232 | 50.76051 | 36744 ft | 441 kts | 130° |
| 2026-04-27 09:11 | 51.95489 | 50.80066 | 36770 ft | 430 kts | 140° |
| 2026-04-27 09:12 | 51.93399 | 50.83434 | 36757 ft | 420 kts | 149° |
| 2026-04-27 09:12 | 51.91053 | 50.86055 | 36761 ft | 409 kts | 159° |
| 2026-04-27 09:12 | 51.88519 | 50.88067 | 36762 ft | 403 kts | 165° |
| 2026-04-27 09:13 | 51.83283 | 50.91223 | 36784 ft | 400 kts | 169° |
| 2026-04-27 09:13 | 51.78011 | 50.93848 | 36786 ft | 397 kts | 171° |
| 2026-04-27 09:14 | 51.72696 | 50.96273 | 36776 ft | 395 kts | 171° |
| 2026-04-27 09:14 | 51.67441 | 50.98967 | 36810 ft | 406 kts | 162° |
| 2026-04-27 09:15 | 51.62566 | 51.03794 | 36808 ft | 413 kts | 155° |
| 2026-04-27 09:15 | 51.57754 | 51.08856 | 36807 ft | 414 kts | 155° |
| 2026-04-27 09:16 | 51.52941 | 51.13935 | 36815 ft | 415 kts | 155° |
| 2026-04-27 09:16 | 51.48134 | 51.19004 | 36818 ft | 416 kts | 154° |
| 2026-04-27 09:17 | 51.43286 | 51.24130 | 36820 ft | 417 kts | 154° |
| 2026-04-27 09:17 | 51.38462 | 51.29298 | 36833 ft | 419 kts | 154° |
| 2026-04-27 09:18 | 51.33640 | 51.34448 | 36839 ft | 419 kts | 154° |
| 2026-04-27 09:18 | 51.28776 | 51.39628 | 36850 ft | 421 kts | 154° |
| 2026-04-27 09:19 | 51.23935 | 51.44771 | 36845 ft | 422 kts | 154° |
| 2026-04-27 09:19 | 51.19070 | 51.49928 | 36847 ft | 420 kts | 154° |
| 2026-04-27 09:20 | 51.14365 | 51.55631 | 36862 ft | 434 kts | 141° |
| 2026-04-27 09:20 | 51.10414 | 51.63035 | 36864 ft | 442 kts | 137° |
| 2026-04-27 09:21 | 51.06491 | 51.70557 | 36854 ft | 440 kts | 137° |
| 2026-04-27 09:21 | 51.02603 | 51.78016 | 36853 ft | 439 kts | 137° |
| 2026-04-27 09:22 | 50.98722 | 51.85448 | 36855 ft | 442 kts | 137° |
| 2026-04-27 09:22 | 50.94787 | 51.92969 | 36866 ft | 443 kts | 137° |
| 2026-04-27 09:23 | 50.90865 | 52.00441 | 36875 ft | 444 kts | 137° |
| 2026-04-27 09:23 | 50.86892 | 52.07992 | 36877 ft | 444 kts | 137° |
| 2026-04-27 09:24 | 50.82946 | 52.15468 | 36879 ft | 444 kts | 137° |
| 2026-04-27 09:24 | 50.78976 | 52.22968 | 36888 ft | 443 kts | 137° |
| 2026-04-27 09:25 | 50.75031 | 52.30398 | 36898 ft | 445 kts | 136° |
| 2026-04-27 09:25 | 50.71055 | 52.37867 | 36899 ft | 443 kts | 136° |
| 2026-04-27 09:26 | 50.67120 | 52.45263 | 36903 ft | 445 kts | 136° |
| 2026-04-27 09:26 | 50.63139 | 52.52766 | 36904 ft | 446 kts | 136° |
| 2026-04-27 09:27 | 50.59172 | 52.60222 | 36914 ft | 446 kts | 136° |
| 2026-04-27 09:27 | 50.55204 | 52.67656 | 36921 ft | 445 kts | 136° |
| 2026-04-27 09:28 | 50.51230 | 52.75082 | 36910 ft | 445 kts | 136° |
| 2026-04-27 09:28 | 50.47236 | 52.82522 | 36923 ft | 444 kts | 136° |
| 2026-04-27 09:29 | 50.43261 | 52.89905 | 36921 ft | 444 kts | 136° |
| 2026-04-27 09:29 | 50.39299 | 52.97243 | 36928 ft | 445 kts | 136° |
| 2026-04-27 09:30 | 50.35305 | 53.04619 | 36926 ft | 444 kts | 136° |
| 2026-04-27 09:30 | 50.31320 | 53.11958 | 36942 ft | 445 kts | 136° |
| 2026-04-27 09:31 | 50.27306 | 53.19331 | 36947 ft | 446 kts | 136° |
| 2026-04-27 09:31 | 50.23284 | 53.26694 | 36957 ft | 447 kts | 136° |
| 2026-04-27 09:32 | 50.19268 | 53.34030 | 36955 ft | 446 kts | 136° |
| 2026-04-27 09:32 | 50.15246 | 53.41355 | 36967 ft | 445 kts | 136° |
| 2026-04-27 09:33 | 50.11216 | 53.48671 | 36973 ft | 446 kts | 136° |
| 2026-04-27 09:33 | 50.07181 | 53.55976 | 36975 ft | 446 kts | 135° |
| 2026-04-27 09:34 | 50.03127 | 53.63296 | 36972 ft | 447 kts | 135° |
| 2026-04-27 09:34 | 49.99081 | 53.70583 | 36972 ft | 445 kts | 136° |
| 2026-04-27 09:35 | 49.95012 | 53.77887 | 36979 ft | 446 kts | 136° |
| 2026-04-27 09:35 | 49.90962 | 53.85138 | 36981 ft | 446 kts | 136° |
| 2026-04-27 09:36 | 49.86894 | 53.92403 | 36992 ft | 446 kts | 136° |
| 2026-04-27 09:36 | 49.82841 | 53.99618 | 36991 ft | 447 kts | 136° |
| 2026-04-27 09:37 | 49.78768 | 54.06851 | 36992 ft | 445 kts | 136° |
| 2026-04-27 09:37 | 49.74710 | 54.14035 | 36994 ft | 446 kts | 136° |
| 2026-04-27 09:38 | 49.70629 | 54.21241 | 36998 ft | 447 kts | 136° |
| 2026-04-27 09:38 | 49.66530 | 54.28457 | 37004 ft | 448 kts | 136° |
| 2026-04-27 09:39 | 49.62423 | 54.35670 | 37012 ft | 448 kts | 136° |
| 2026-04-27 09:39 | 49.58296 | 54.42896 | 37015 ft | 448 kts | 136° |
| 2026-04-27 09:40 | 49.54193 | 54.50060 | 37015 ft | 449 kts | 136° |
| 2026-04-27 09:40 | 49.50066 | 54.57246 | 37015 ft | 448 kts | 136° |
| 2026-04-27 09:41 | 49.45949 | 54.64395 | 37026 ft | 449 kts | 136° |
| 2026-04-27 09:41 | 49.41799 | 54.71584 | 37021 ft | 448 kts | 136° |
| 2026-04-27 09:42 | 49.37667 | 54.78719 | 37024 ft | 449 kts | 136° |
| 2026-04-27 09:42 | 49.33524 | 54.85856 | 37022 ft | 448 kts | 136° |
| 2026-04-27 09:43 | 49.29410 | 54.92921 | 37033 ft | 448 kts | 136° |
| 2026-04-27 09:43 | 49.25256 | 55.00035 | 37037 ft | 449 kts | 136° |
| 2026-04-27 09:44 | 49.21103 | 55.07130 | 37037 ft | 448 kts | 136° |
| 2026-04-27 09:44 | 49.16934 | 55.14232 | 37034 ft | 448 kts | 136° |
| 2026-04-27 09:45 | 49.12796 | 55.21264 | 37037 ft | 449 kts | 136° |
| 2026-04-27 09:45 | 49.08625 | 55.28333 | 37049 ft | 450 kts | 136° |
| 2026-04-27 09:46 | 49.04462 | 55.35371 | 37055 ft | 450 kts | 136° |
| 2026-04-27 09:46 | 49.00272 | 55.42434 | 37050 ft | 449 kts | 136° |
| 2026-04-27 09:47 | 48.96098 | 55.49452 | 37052 ft | 450 kts | 136° |
| 2026-04-27 09:47 | 48.91895 | 55.56499 | 37063 ft | 449 kts | 136° |
| 2026-04-27 09:48 | 48.87718 | 55.63483 | 37075 ft | 449 kts | 136° |
| 2026-04-27 09:48 | 48.83498 | 55.70520 | 37065 ft | 448 kts | 137° |
| 2026-04-27 09:49 | 48.79298 | 55.77497 | 37067 ft | 449 kts | 137° |
| 2026-04-27 09:49 | 48.75051 | 55.84533 | 37074 ft | 450 kts | 137° |
| 2026-04-27 09:50 | 48.70843 | 55.91488 | 37075 ft | 450 kts | 137° |
| 2026-04-27 09:50 | 48.66617 | 55.98451 | 37079 ft | 451 kts | 137° |
| 2026-04-27 09:51 | 48.62401 | 56.05380 | 37082 ft | 450 kts | 137° |
| 2026-04-27 09:51 | 48.58155 | 56.12339 | 37084 ft | 450 kts | 137° |
| 2026-04-27 09:52 | 48.53941 | 56.19227 | 37084 ft | 450 kts | 137° |
| 2026-04-27 09:52 | 48.49681 | 56.26169 | 37085 ft | 450 kts | 137° |
| 2026-04-27 09:53 | 48.45412 | 56.33107 | 37089 ft | 450 kts | 137° |
| 2026-04-27 09:53 | 48.41176 | 56.39975 | 37096 ft | 452 kts | 137° |
| 2026-04-27 09:54 | 48.36896 | 56.46894 | 37096 ft | 452 kts | 137° |
| 2026-04-27 09:54 | 48.32635 | 56.53771 | 37092 ft | 452 kts | 137° |
| 2026-04-27 09:55 | 48.28349 | 56.60674 | 37094 ft | 452 kts | 137° |
| 2026-04-27 09:55 | 48.21906 | 56.71019 | 37092 ft | 451 kts | 138° |
| 2026-04-27 09:56 | 48.17636 | 56.77850 | 37095 ft | 452 kts | 138° |
| 2026-04-27 09:56 | 48.13337 | 56.84712 | 37099 ft | 452 kts | 138° |
| 2026-04-27 09:57 | 48.09048 | 56.91539 | 37094 ft | 452 kts | 138° |
| 2026-04-27 09:57 | 48.04734 | 56.98386 | 37093 ft | 453 kts | 137° |
| 2026-04-27 09:58 | 48.00431 | 57.05201 | 37101 ft | 453 kts | 138° |
| 2026-04-27 09:58 | 47.96099 | 57.12043 | 37106 ft | 454 kts | 138° |
| 2026-04-27 09:59 | 47.91793 | 57.18827 | 37117 ft | 453 kts | 138° |
| 2026-04-27 09:59 | 47.87437 | 57.25668 | 37118 ft | 454 kts | 138° |
| 2026-04-27 10:00 | 47.83117 | 57.32439 | 37116 ft | 453 kts | 137° |
| 2026-04-27 10:00 | 47.78753 | 57.39260 | 37121 ft | 454 kts | 137° |
| 2026-04-27 10:01 | 47.74433 | 57.45993 | 37128 ft | 453 kts | 137° |
| 2026-04-27 10:01 | 47.70089 | 57.52749 | 37129 ft | 453 kts | 138° |
| 2026-04-27 10:02 | 47.65736 | 57.59501 | 37132 ft | 453 kts | 137° |
| 2026-04-27 10:02 | 47.61382 | 57.66235 | 37131 ft | 453 kts | 138° |
| 2026-04-27 10:03 | 47.56996 | 57.73003 | 37129 ft | 454 kts | 139° |
| 2026-04-27 10:03 | 47.52642 | 57.79702 | 37133 ft | 454 kts | 139° |
| 2026-04-27 10:04 | 47.48255 | 57.86436 | 37131 ft | 454 kts | 139° |
| 2026-04-27 10:04 | 47.43894 | 57.93114 | 37133 ft | 454 kts | 139° |
| 2026-04-27 10:05 | 47.39522 | 57.99789 | 37131 ft | 454 kts | 138° |
| 2026-04-27 10:05 | 47.35131 | 58.06478 | 37132 ft | 454 kts | 139° |
| 2026-04-27 10:06 | 47.30736 | 58.13154 | 37134 ft | 454 kts | 138° |
| 2026-04-27 10:06 | 47.26334 | 58.19823 | 37136 ft | 455 kts | 139° |
| 2026-04-27 10:07 | 47.21931 | 58.26476 | 37135 ft | 455 kts | 139° |
| 2026-04-27 10:07 | 47.17499 | 58.33153 | 37140 ft | 455 kts | 138° |
| 2026-04-27 10:08 | 47.13086 | 58.39786 | 37140 ft | 455 kts | 138° |
| 2026-04-27 10:08 | 47.08667 | 58.46411 | 37143 ft | 455 kts | 138° |
| 2026-04-27 10:09 | 47.04244 | 58.53027 | 37141 ft | 455 kts | 138° |
| 2026-04-27 10:09 | 46.99809 | 58.59642 | 37141 ft | 456 kts | 138° |
| 2026-04-27 10:10 | 46.95385 | 58.66226 | 37139 ft | 454 kts | 139° |
| 2026-04-27 10:10 | 46.90931 | 58.72836 | 37136 ft | 455 kts | 139° |
| 2026-04-27 10:11 | 46.86514 | 58.79377 | 37144 ft | 456 kts | 139° |
| 2026-04-27 10:11 | 46.82043 | 58.85979 | 37143 ft | 455 kts | 139° |
| 2026-04-27 10:12 | 46.77602 | 58.92521 | 37145 ft | 457 kts | 139° |
| 2026-04-27 10:12 | 46.73151 | 58.99063 | 37140 ft | 455 kts | 139° |
| 2026-04-27 10:13 | 46.68700 | 59.05586 | 37150 ft | 456 kts | 139° |
| 2026-04-27 10:13 | 46.64202 | 59.12163 | 37158 ft | 456 kts | 139° |
| 2026-04-27 10:14 | 46.59747 | 59.18662 | 37159 ft | 457 kts | 139° |
| 2026-04-27 10:14 | 46.55279 | 59.25163 | 37162 ft | 457 kts | 139° |
| 2026-04-27 10:15 | 46.50806 | 59.31654 | 37165 ft | 457 kts | 139° |
| 2026-04-27 10:15 | 46.46293 | 59.38189 | 37161 ft | 457 kts | 139° |
| 2026-04-27 10:16 | 46.41801 | 59.44677 | 37162 ft | 457 kts | 139° |
| 2026-04-27 10:16 | 46.37300 | 59.51160 | 37164 ft | 457 kts | 139° |
| 2026-04-27 10:17 | 46.32769 | 59.57671 | 37169 ft | 458 kts | 139° |
| 2026-04-27 10:17 | 46.28278 | 59.64110 | 37168 ft | 458 kts | 139° |
| 2026-04-27 10:18 | 46.23747 | 59.70590 | 37158 ft | 457 kts | 139° |
| 2026-04-27 10:18 | 46.19140 | 59.76820 | 37168 ft | 456 kts | 141° |
| 2026-04-27 10:19 | 46.14461 | 59.83015 | 37170 ft | 456 kts | 142° |
| 2026-04-27 10:19 | 46.09788 | 59.89187 | 37174 ft | 457 kts | 141° |
| 2026-04-27 10:20 | 46.05119 | 59.95344 | 37176 ft | 458 kts | 142° |
| 2026-04-27 10:20 | 46.00432 | 60.01509 | 37168 ft | 458 kts | 141° |
| 2026-04-27 10:21 | 45.95741 | 60.07665 | 37167 ft | 458 kts | 141° |
| 2026-04-27 10:21 | 45.91058 | 60.13793 | 37174 ft | 459 kts | 141° |
| 2026-04-27 10:22 | 45.86330 | 60.19968 | 37160 ft | 458 kts | 141° |
| 2026-04-27 10:22 | 45.81633 | 60.26086 | 37165 ft | 458 kts | 141° |
| 2026-04-27 10:23 | 45.76894 | 60.32246 | 37167 ft | 458 kts | 141° |
| 2026-04-27 10:23 | 45.72183 | 60.38354 | 37166 ft | 458 kts | 141° |
| 2026-04-27 10:24 | 45.67458 | 60.44466 | 37160 ft | 459 kts | 141° |
| 2026-04-27 10:24 | 45.62755 | 60.50535 | 37157 ft | 458 kts | 141° |
| 2026-04-27 10:25 | 45.58004 | 60.56652 | 37153 ft | 459 kts | 141° |
| 2026-04-27 10:25 | 45.53296 | 60.62697 | 37158 ft | 458 kts | 141° |
| 2026-04-27 10:26 | 45.48526 | 60.68809 | 37157 ft | 458 kts | 142° |
| 2026-04-27 10:26 | 45.43816 | 60.74829 | 37141 ft | 457 kts | 142° |
| 2026-04-27 10:27 | 45.39079 | 60.80868 | 37140 ft | 458 kts | 142° |
| 2026-04-27 10:27 | 45.34327 | 60.86911 | 37143 ft | 458 kts | 142° |
| 2026-04-27 10:28 | 45.29574 | 60.92940 | 37138 ft | 458 kts | 142° |
| 2026-04-27 10:28 | 45.24832 | 60.98942 | 37142 ft | 458 kts | 142° |
| 2026-04-27 10:29 | 45.20067 | 61.04959 | 37143 ft | 459 kts | 142° |
| 2026-04-27 10:29 | 45.15333 | 61.10924 | 37140 ft | 459 kts | 142° |
| 2026-04-27 10:30 | 45.10548 | 61.16938 | 37132 ft | 458 kts | 142° |
| 2026-04-27 10:30 | 45.05808 | 61.22881 | 37129 ft | 459 kts | 142° |
| 2026-04-27 10:31 | 45.01053 | 61.28828 | 37135 ft | 459 kts | 142° |
| 2026-04-27 10:31 | 44.96258 | 61.34813 | 37123 ft | 457 kts | 142° |
| 2026-04-27 10:32 | 44.91504 | 61.40733 | 37134 ft | 460 kts | 142° |
| 2026-04-27 10:32 | 44.86725 | 61.46674 | 37140 ft | 458 kts | 142° |
| 2026-04-27 10:33 | 44.81927 | 61.52626 | 37137 ft | 462 kts | 142° |
| 2026-04-27 10:33 | 44.77059 | 61.58648 | 37128 ft | 474 kts | 142° |
| 2026-04-27 10:34 | 44.72064 | 61.64816 | 37130 ft | 482 kts | 142° |
| 2026-04-27 10:34 | 44.66990 | 61.71069 | 37120 ft | 481 kts | 142° |
| 2026-04-27 10:35 | 44.61953 | 61.77259 | 37114 ft | 481 kts | 142° |
| 2026-04-27 10:35 | 44.56929 | 61.83419 | 37123 ft | 482 kts | 142° |
| 2026-04-27 10:36 | 44.51916 | 61.89549 | 37120 ft | 481 kts | 142° |
| 2026-04-27 10:36 | 44.46881 | 61.95693 | 37115 ft | 481 kts | 142° |
| 2026-04-27 10:37 | 44.41827 | 62.01846 | 37119 ft | 481 kts | 142° |
| 2026-04-27 10:37 | 44.36807 | 62.07940 | 37110 ft | 481 kts | 142° |
| 2026-04-27 10:38 | 44.31738 | 62.14083 | 37111 ft | 481 kts | 142° |
| 2026-04-27 10:38 | 44.26704 | 62.20166 | 37108 ft | 481 kts | 142° |
| 2026-04-27 10:39 | 44.21630 | 62.26284 | 37106 ft | 481 kts | 142° |
| 2026-04-27 10:39 | 44.16555 | 62.32385 | 37101 ft | 480 kts | 142° |
| 2026-04-27 10:40 | 44.11500 | 62.38440 | 37104 ft | 480 kts | 143° |
| 2026-04-27 10:40 | 44.06432 | 62.44495 | 37093 ft | 480 kts | 143° |
| 2026-04-27 10:41 | 44.01369 | 62.50529 | 37099 ft | 479 kts | 142° |
| 2026-04-27 10:41 | 43.96351 | 62.56498 | 37100 ft | 478 kts | 142° |
| 2026-04-27 10:42 | 43.91298 | 62.62494 | 37097 ft | 479 kts | 143° |
| 2026-04-27 10:42 | 43.86234 | 62.68489 | 37088 ft | 478 kts | 143° |
| 2026-04-27 10:43 | 43.81148 | 62.74494 | 37093 ft | 479 kts | 143° |
| 2026-04-27 10:43 | 43.76114 | 62.80426 | 37092 ft | 477 kts | 143° |
| 2026-04-27 10:44 | 43.71042 | 62.86388 | 37086 ft | 477 kts | 143° |
| 2026-04-27 10:44 | 43.66009 | 62.92289 | 37090 ft | 476 kts | 143° |
| 2026-04-27 10:45 | 43.60966 | 62.98192 | 37082 ft | 476 kts | 143° |
| 2026-04-27 10:45 | 43.55944 | 63.04068 | 37083 ft | 475 kts | 143° |
| 2026-04-27 10:46 | 43.50918 | 63.09937 | 37078 ft | 474 kts | 143° |
| 2026-04-27 10:46 | 43.45868 | 63.15819 | 37085 ft | 475 kts | 143° |
| 2026-04-27 10:47 | 43.40861 | 63.21640 | 37086 ft | 473 kts | 143° |
| 2026-04-27 10:47 | 43.35827 | 63.27478 | 37077 ft | 473 kts | 143° |
| 2026-04-27 10:48 | 43.30797 | 63.33295 | 37075 ft | 473 kts | 143° |
| 2026-04-27 10:48 | 43.25776 | 63.39089 | 37071 ft | 472 kts | 143° |
| 2026-04-27 10:49 | 43.20764 | 63.44856 | 37076 ft | 473 kts | 143° |
| 2026-04-27 10:49 | 43.15728 | 63.50639 | 37074 ft | 471 kts | 143° |
| 2026-04-27 10:50 | 43.10733 | 63.56363 | 37075 ft | 471 kts | 143° |
| 2026-04-27 10:50 | 43.05737 | 63.62075 | 37075 ft | 470 kts | 143° |
| 2026-04-27 10:51 | 43.00687 | 63.67835 | 37068 ft | 470 kts | 144° |
| 2026-04-27 10:51 | 42.95681 | 63.73530 | 37068 ft | 470 kts | 144° |
| 2026-04-27 10:52 | 42.90675 | 63.79206 | 37063 ft | 471 kts | 144° |
| 2026-04-27 10:52 | 42.85644 | 63.84897 | 37060 ft | 469 kts | 144° |
| 2026-04-27 10:53 | 42.78087 | 63.93424 | 37058 ft | 469 kts | 144° |
| 2026-04-27 10:54 | 42.73082 | 63.99054 | 37060 ft | 469 kts | 144° |
| 2026-04-27 10:54 | 42.68063 | 64.04689 | 37059 ft | 468 kts | 144° |
| 2026-04-27 10:55 | 42.63040 | 64.10317 | 37056 ft | 468 kts | 144° |
| 2026-04-27 10:55 | 42.57991 | 64.15858 | 37049 ft | 466 kts | 147° |
| 2026-04-27 10:56 | 42.52779 | 64.21004 | 37047 ft | 466 kts | 147° |
| 2026-04-27 10:56 | 42.47569 | 64.26161 | 37047 ft | 465 kts | 147° |
| 2026-04-27 10:57 | 42.42337 | 64.31332 | 37042 ft | 465 kts | 147° |
| 2026-04-27 10:57 | 42.37113 | 64.36485 | 37045 ft | 465 kts | 147° |
| 2026-04-27 10:58 | 42.31848 | 64.41671 | 37042 ft | 465 kts | 147° |
| 2026-04-27 10:58 | 42.26629 | 64.46800 | 37043 ft | 465 kts | 147° |
| 2026-04-27 10:59 | 42.21417 | 64.51910 | 37037 ft | 464 kts | 147° |
| 2026-04-27 10:59 | 42.16201 | 64.57014 | 37032 ft | 464 kts | 147° |
| 2026-04-27 11:00 | 42.08358 | 64.64670 | 37024 ft | 464 kts | 147° |
| 2026-04-27 11:00 | 42.03164 | 64.69726 | 37015 ft | 463 kts | 148° |
| 2026-04-27 11:01 | 41.97940 | 64.74801 | 37003 ft | 464 kts | 148° |
| 2026-04-27 11:01 | 41.92703 | 64.79879 | 37002 ft | 463 kts | 148° |
| 2026-04-27 11:02 | 41.87497 | 64.84914 | 37006 ft | 464 kts | 148° |
| 2026-04-27 11:02 | 41.82249 | 64.89982 | 37009 ft | 464 kts | 148° |
| 2026-04-27 11:03 | 41.77032 | 64.95009 | 37003 ft | 463 kts | 148° |
| 2026-04-27 11:03 | 41.71806 | 65.00033 | 36993 ft | 464 kts | 148° |
| 2026-04-27 11:04 | 41.66582 | 65.05046 | 36990 ft | 464 kts | 148° |
| 2026-04-27 11:04 | 41.61335 | 65.10071 | 36998 ft | 464 kts | 148° |
| 2026-04-27 11:05 | 41.56098 | 65.15075 | 36995 ft | 464 kts | 148° |
| 2026-04-27 11:05 | 41.50854 | 65.20077 | 36996 ft | 465 kts | 148° |
| 2026-04-27 11:06 | 41.45580 | 65.25097 | 36995 ft | 465 kts | 148° |
| 2026-04-27 11:06 | 41.40302 | 65.30111 | 36999 ft | 464 kts | 148° |
| 2026-04-27 11:07 | 41.35078 | 65.35063 | 36997 ft | 464 kts | 148° |
| 2026-04-27 11:07 | 41.29788 | 65.40067 | 36997 ft | 465 kts | 148° |
| 2026-04-27 11:08 | 41.24553 | 65.45010 | 36993 ft | 464 kts | 148° |
| 2026-04-27 11:08 | 41.19297 | 65.49961 | 36993 ft | 465 kts | 148° |
| 2026-04-27 11:09 | 41.14025 | 65.54919 | 36988 ft | 464 kts | 148° |
| 2026-04-27 11:09 | 41.08757 | 65.59862 | 36984 ft | 465 kts | 148° |
| 2026-04-27 11:10 | 41.03474 | 65.64776 | 36982 ft | 464 kts | 148° |
| 2026-04-27 11:10 | 40.98185 | 65.69677 | 36969 ft | 464 kts | 149° |
| 2026-04-27 11:11 | 40.92884 | 65.74577 | 36978 ft | 464 kts | 149° |
| 2026-04-27 11:11 | 40.87611 | 65.79446 | 36989 ft | 464 kts | 149° |
| 2026-04-27 11:12 | 40.82312 | 65.84326 | 36981 ft | 465 kts | 149° |
| 2026-04-27 11:12 | 40.76976 | 65.89232 | 36980 ft | 465 kts | 149° |
| 2026-04-27 11:13 | 40.71688 | 65.94083 | 36983 ft | 466 kts | 149° |
| 2026-04-27 11:13 | 40.66383 | 65.98941 | 36980 ft | 465 kts | 149° |
| 2026-04-27 11:14 | 40.61054 | 66.03810 | 36982 ft | 465 kts | 149° |
| 2026-04-27 11:14 | 40.55764 | 66.08635 | 36995 ft | 465 kts | 149° |
| 2026-04-27 11:15 | 40.50451 | 66.13470 | 36997 ft | 466 kts | 149° |
| 2026-04-27 11:15 | 40.45099 | 66.18333 | 37002 ft | 466 kts | 149° |
| 2026-04-27 11:16 | 40.39777 | 66.23108 | 37016 ft | 466 kts | 149° |
| 2026-04-27 11:16 | 40.34398 | 66.27920 | 37018 ft | 467 kts | 149° |
| 2026-04-27 11:17 | 40.29030 | 66.32711 | 37021 ft | 467 kts | 149° |
| 2026-04-27 11:17 | 40.23854 | 66.37857 | 37027 ft | 471 kts | 143° |
| 2026-04-27 11:18 | 40.18851 | 66.43441 | 37008 ft | 471 kts | 143° |
| 2026-04-27 11:18 | 40.13883 | 66.48990 | 37000 ft | 471 kts | 143° |
| 2026-04-27 11:19 | 40.08903 | 66.54552 | 36990 ft | 471 kts | 143° |
| 2026-04-27 11:19 | 40.03930 | 66.60098 | 36978 ft | 471 kts | 143° |
| 2026-04-27 11:20 | 39.98970 | 66.65619 | 36977 ft | 472 kts | 143° |
| 2026-04-27 11:20 | 39.93962 | 66.71184 | 36973 ft | 472 kts | 143° |
| 2026-04-27 11:21 | 39.88944 | 66.76748 | 36978 ft | 472 kts | 144° |
| 2026-04-27 11:21 | 39.83947 | 66.82278 | 36979 ft | 472 kts | 144° |
| 2026-04-27 11:22 | 39.78959 | 66.87789 | 36977 ft | 471 kts | 144° |
| 2026-04-27 11:22 | 39.73959 | 66.93299 | 36972 ft | 472 kts | 144° |
| 2026-04-27 11:23 | 39.68911 | 66.98727 | 36976 ft | 470 kts | 147° |
| 2026-04-27 11:23 | 39.63702 | 67.03838 | 36988 ft | 470 kts | 147° |
| 2026-04-27 11:24 | 39.58619 | 67.08843 | 36994 ft | 449 kts | 147° |
| 2026-04-27 11:24 | 39.53660 | 67.13710 | 37005 ft | 449 kts | 147° |
| 2026-04-27 11:25 | 39.48659 | 67.18612 | 37003 ft | 454 kts | 147° |
| 2026-04-27 11:25 | 39.43940 | 67.24054 | 37056 ft | 460 kts | 134° |
| 2026-04-27 11:26 | 39.40705 | 67.31127 | 37118 ft | 456 kts | 117° |
| 2026-04-27 11:26 | 39.38216 | 67.38588 | 37131 ft | 452 kts | 117° |
| 2026-04-27 11:27 | 39.36978 | 67.42329 | 36708 ft | 462 kts | 116° |
| 2026-04-27 11:27 | 39.35693 | 67.46113 | 36265 ft | 458 kts | 120° |
| 2026-04-27 11:27 | 39.34120 | 67.49607 | 35842 ft | 449 kts | 127° |
| 2026-04-27 11:27 | 39.32423 | 67.53007 | 35345 ft | 449 kts | 127° |
| 2026-04-27 11:28 | 39.30736 | 67.56387 | 34870 ft | 447 kts | 127° |
| 2026-04-27 11:28 | 39.29069 | 67.59705 | 34385 ft | 445 kts | 127° |
| 2026-04-27 11:28 | 39.27384 | 67.63049 | 33893 ft | 444 kts | 127° |
| 2026-04-27 11:28 | 39.25697 | 67.66385 | 33320 ft | 445 kts | 127° |
| 2026-04-27 11:29 | 39.24016 | 67.69706 | 32749 ft | 446 kts | 127° |
| 2026-04-27 11:29 | 39.22328 | 67.73035 | 32201 ft | 448 kts | 127° |
| 2026-04-27 11:29 | 39.20610 | 67.76417 | 31643 ft | 451 kts | 127° |
| 2026-04-27 11:29 | 39.18888 | 67.79806 | 31091 ft | 453 kts | 127° |
| 2026-04-27 11:30 | 39.17162 | 67.83199 | 30552 ft | 454 kts | 127° |
| 2026-04-27 11:30 | 39.15449 | 67.86562 | 30008 ft | 450 kts | 127° |
| 2026-04-27 11:30 | 39.13753 | 67.89889 | 29487 ft | 445 kts | 126° |
| 2026-04-27 11:30 | 39.12049 | 67.93230 | 28953 ft | 440 kts | 127° |
| 2026-04-27 11:31 | 39.10393 | 67.96472 | 28443 ft | 435 kts | 126° |
| 2026-04-27 11:31 | 39.08749 | 67.99688 | 27950 ft | 432 kts | 126° |
| 2026-04-27 11:31 | 39.07110 | 68.02889 | 27463 ft | 429 kts | 126° |
| 2026-04-27 11:31 | 39.05474 | 68.06079 | 26983 ft | 427 kts | 126° |
| 2026-04-27 11:32 | 39.03835 | 68.09275 | 26486 ft | 424 kts | 126° |
| 2026-04-27 11:32 | 39.02233 | 68.12394 | 26005 ft | 419 kts | 126° |
| 2026-04-27 11:32 | 39.00637 | 68.15500 | 25524 ft | 415 kts | 126° |
| 2026-04-27 11:32 | 38.99041 | 68.18601 | 25048 ft | 412 kts | 125° |
| 2026-04-27 11:33 | 38.97484 | 68.21625 | 24577 ft | 409 kts | 126° |
| 2026-04-27 11:33 | 38.95921 | 68.24658 | 24098 ft | 406 kts | 125° |
| 2026-04-27 11:33 | 38.94253 | 68.27581 | 23636 ft | 400 kts | 135° |
| 2026-04-27 11:33 | 38.92166 | 68.29855 | 23208 ft | 394 kts | 149° |
| 2026-04-27 11:34 | 38.89723 | 68.31354 | 22730 ft | 388 kts | 164° |
| 2026-04-27 11:34 | 38.87109 | 68.32158 | 22241 ft | 383 kts | 170° |
| 2026-04-27 11:34 | 38.84514 | 68.32825 | 21752 ft | 379 kts | 171° |
| 2026-04-27 11:34 | 38.81918 | 68.33443 | 21268 ft | 375 kts | 171° |
| 2026-04-27 11:35 | 38.79360 | 68.34023 | 20794 ft | 372 kts | 171° |
| 2026-04-27 11:35 | 38.76821 | 68.34579 | 20329 ft | 369 kts | 172° |
| 2026-04-27 11:35 | 38.74316 | 68.35119 | 19863 ft | 367 kts | 172° |
| 2026-04-27 11:35 | 38.71797 | 68.35656 | 19398 ft | 365 kts | 172° |
| 2026-04-27 11:36 | 38.69323 | 68.36179 | 18953 ft | 362 kts | 171° |
| 2026-04-27 11:36 | 38.66833 | 68.36704 | 18503 ft | 359 kts | 171° |
| 2026-04-27 11:36 | 38.64383 | 68.37219 | 18073 ft | 357 kts | 171° |
| 2026-04-27 11:36 | 38.61940 | 68.37732 | 17638 ft | 355 kts | 171° |
| 2026-04-27 11:37 | 38.59530 | 68.38461 | 17169 ft | 353 kts | 159° |
| 2026-04-27 11:37 | 38.57392 | 68.39984 | 16744 ft | 353 kts | 143° |
| 2026-04-27 11:37 | 38.55664 | 68.42213 | 16086 ft | 359 kts | 127° |
| 2026-04-27 11:37 | 38.54469 | 68.45021 | 15354 ft | 365 kts | 110° |
| 2026-04-27 11:38 | 38.53957 | 68.48156 | 14946 ft | 360 kts | 93° |
| 2026-04-27 11:38 | 38.53993 | 68.51292 | 14810 ft | 347 kts | 89° |
| 2026-04-27 11:38 | 38.54032 | 68.54314 | 14525 ft | 339 kts | 89° |
| 2026-04-27 11:38 | 38.54076 | 68.57275 | 14518 ft | 323 kts | 89° |
| 2026-04-27 11:39 | 38.54118 | 68.60052 | 14521 ft | 310 kts | 89° |
| 2026-04-27 11:39 | 38.54158 | 68.62745 | 14508 ft | 296 kts | 89° |
| 2026-04-27 11:39 | 38.54196 | 68.65314 | 14482 ft | 284 kts | 90° |
| 2026-04-27 11:39 | 38.54234 | 68.67802 | 14475 ft | 271 kts | 90° |
| 2026-04-27 11:40 | 38.54215 | 68.70132 | 14421 ft | 259 kts | 100° |
| 2026-04-27 11:40 | 38.53571 | 68.72214 | 14174 ft | 253 kts | 129° |
| 2026-04-27 11:40 | 38.52210 | 68.73606 | 13832 ft | 253 kts | 158° |
| 2026-04-27 11:40 | 38.50499 | 68.74058 | 13535 ft | 252 kts | 175° |
| 2026-04-27 11:41 | 38.48769 | 68.74178 | 13213 ft | 251 kts | 184° |
| 2026-04-27 11:41 | 38.47111 | 68.73511 | 12771 ft | 253 kts | 214° |
| 2026-04-27 11:41 | 38.45948 | 68.71879 | 12376 ft | 254 kts | 244° |
| 2026-04-27 11:41 | 38.45564 | 68.69679 | 11941 ft | 256 kts | 271° |
| 2026-04-27 11:42 | 38.45631 | 68.67457 | 11548 ft | 254 kts | 271° |
| 2026-04-27 11:42 | 38.45660 | 68.65185 | 11080 ft | 254 kts | 270° |
| 2026-04-27 11:42 | 38.45677 | 68.62978 | 10657 ft | 252 kts | 270° |
| 2026-04-27 11:42 | 38.45687 | 68.60744 | 10214 ft | 252 kts | 270° |
| 2026-04-27 11:43 | 38.45694 | 68.58530 | 9852 ft | 247 kts | 270° |
| 2026-04-27 11:43 | 38.45699 | 68.56353 | 9535 ft | 243 kts | 270° |
| 2026-04-27 11:43 | 38.45701 | 68.54200 | 9293 ft | 248 kts | 270° |
| 2026-04-27 11:43 | 38.45868 | 68.51984 | 8900 ft | 254 kts | 290° |
| 2026-04-27 11:44 | 38.46787 | 68.50108 | 8505 ft | 256 kts | 319° |
| 2026-04-27 11:44 | 38.48356 | 68.49023 | 8079 ft | 258 kts | 349° |
| 2026-04-27 11:44 | 38.50126 | 68.48889 | 7652 ft | 261 kts | 3° |
| 2026-04-27 11:44 | 38.51927 | 68.49255 | 7162 ft | 258 kts | 25° |
| 2026-04-27 11:45 | 38.53270 | 68.50602 | 7006 ft | 240 kts | 56° |
| 2026-04-27 11:45 | 38.53845 | 68.51793 | 6863 ft | 235 kts | 61° |
| 2026-04-27 11:45 | 38.54314 | 68.54415 | 6506 ft | 230 kts | 89° |
| 2026-04-27 11:45 | 38.54329 | 68.56403 | 6210 ft | 215 kts | 88° |
| 2026-04-27 11:46 | 38.54351 | 68.58192 | 6033 ft | 190 kts | 89° |
| 2026-04-27 11:46 | 38.54363 | 68.59793 | 5762 ft | 172 kts | 89° |
| 2026-04-27 11:46 | 38.54371 | 68.61244 | 5500 ft | 159 kts | 89° |
| 2026-04-27 11:46 | 38.54376 | 68.62624 | 5272 ft | 153 kts | 89° |
| 2026-04-27 11:47 | 38.54380 | 68.63972 | 5058 ft | 149 kts | 89° |
| 2026-04-27 11:47 | 38.54382 | 68.65256 | 4845 ft | 143 kts | 89° |
| 2026-04-27 11:47 | 38.54384 | 68.66516 | 4658 ft | 142 kts | 89° |
| 2026-04-27 11:47 | 38.54385 | 68.67790 | 4483 ft | 142 kts | 89° |
| 2026-04-27 11:48 | 38.54385 | 68.69035 | 4299 ft | 142 kts | 89° |
| 2026-04-27 11:48 | 38.54385 | 68.70303 | 4120 ft | 141 kts | 89° |
| 2026-04-27 11:48 | 38.54384 | 68.71553 | 3936 ft | 141 kts | 89° |
| 2026-04-27 11:48 | 38.54385 | 68.72795 | 3759 ft | 140 kts | 89° |
| 2026-04-27 11:49 | 38.54387 | 68.74030 | 3583 ft | 140 kts | 89° |
| 2026-04-27 11:49 | 38.54383 | 68.75272 | 3401 ft | 139 kts | 89° |
| 2026-04-27 11:49 | 38.54381 | 68.76514 | 3228 ft | 140 kts | 89° |
| 2026-04-27 11:49 | 38.54379 | 68.77754 | 3059 ft | 142 kts | 89° |
| 2026-04-27 11:50 | 38.54380 | 68.79009 | 2890 ft | 142 kts | 89° |
| 2026-04-27 11:50 | 38.54374 | 68.80269 | 2700 ft | 142 kts | 90° |
| 2026-04-27 11:50 | 38.54375 | 68.81513 | 2611 ft | 132 kts | 89° |
| 2026-04-27 11:50 | 38.54371 | 68.82444 | 2611 ft | 79 kts | 89° |
| 2026-04-27 11:51 | 38.54369 | 68.82974 | 2611 ft | 46 kts | 90° |
| 2026-04-27 11:51 | 38.54364 | 68.83363 | 2611 ft | 41 kts | 91° |
| 2026-04-27 11:51 | 38.54368 | 68.84006 | 2611 ft | 26 kts | 88° |
| 2026-04-27 11:52 | 38.54369 | 68.84094 | 2611 ft | 5 kts | 89° |
| 2026-04-27 11:52 | 38.54380 | 68.84132 | 2611 ft | 3 kts | 46° |
| 2026-04-27 11:52 | 38.54396 | 68.84159 | 2611 ft | 3 kts | 71° |
| 2026-04-27 11:52 | 38.54392 | 68.84178 | 2611 ft | 2 kts | 128° |
| 2026-04-27 11:53 | 38.54375 | 68.84180 | 2611 ft | 3 kts | 211° |
| 2026-04-27 11:53 | 38.54367 | 68.84132 | 2611 ft | 10 kts | 269° |
| 2026-04-27 11:53 | 38.54369 | 68.84000 | 2611 ft | 20 kts | 271° |
| 2026-04-27 11:53 | 38.54367 | 68.83776 | 2611 ft | 29 kts | 269° |
| 2026-04-27 11:54 | 38.54366 | 68.83474 | 2611 ft | 38 kts | 270° |
| 2026-04-27 11:54 | 38.54368 | 68.83104 | 2610 ft | 44 kts | 271° |
| 2026-04-27 11:54 | 38.54372 | 68.82713 | 2610 ft | 42 kts | 270° |
| 2026-04-27 11:54 | 38.54371 | 68.82347 | 2610 ft | 39 kts | 269° |
| 2026-04-27 11:55 | 38.54392 | 68.82125 | 2610 ft | 17 kts | 302° |
| 2026-04-27 11:55 | 38.54483 | 68.82037 | 2611 ft | 15 kts | 325° |
| 2026-04-27 11:55 | 38.54567 | 68.81956 | 2611 ft | 14 kts | 321° |
| 2026-04-27 11:55 | 38.54638 | 68.81881 | 2611 ft | 12 kts | 323° |
| 2026-04-27 11:56 | 38.54693 | 68.81818 | 2612 ft | 6 kts | 294° |
| 2026-04-27 11:56 | 38.54695 | 68.81768 | 2612 ft | 5 kts | 270° |
| 2026-04-27 11:56 | 38.54695 | 68.81718 | 2612 ft | 5 kts | 269° |
| 2026-04-27 11:56 | 38.54694 | 68.81667 | 2612 ft | 5 kts | 267° |
| 2026-04-27 11:57 | 38.54692 | 68.81616 | 2612 ft | 5 kts | 267° |
| 2026-04-27 11:57 | 38.54689 | 68.81566 | 2612 ft | 5 kts | 259° |
| 2026-04-27 11:57 | 38.54684 | 68.81521 | 2612 ft | 5 kts | 273° |
| 2026-04-27 11:57 | 38.54686 | 68.81475 | 2612 ft | 4 kts | 279° |
| 2026-04-27 11:58 | 38.54702 | 68.81438 | 2612 ft | 4 kts | 311° |
| 2026-04-27 11:58 | 38.54728 | 68.81418 | 2612 ft | 4 kts | 347° |
| 2026-04-27 11:58 | 38.54758 | 68.81416 | 2612 ft | 4 kts | 0° |
| 2026-04-27 11:58 | 38.54786 | 68.81417 | 2612 ft | 0 kts | 359° |
| 2026-04-27 11:59 | 38.54794 | 68.81417 | 2612 ft | 0 kts | 359° |